sensor_id;sensor_type;location;lat;lon;timestamp;P1;durP1;ratioP1;P2;durP2;ratioP2
52304;SDS011;38248;52.722;6.734;2022-09-09T00:01:28;16.08;;;7.18;;
52304;SDS011;38248;52.722;6.734;2022-09-09T00:04:15;19.80;;;6.88;;
52304;SDS011;38248;52.722;6.734;2022-09-09T00:09:37;25.67;;;7.15;;
52304;SDS011;38248;52.722;6.734;2022-09-09T00:12:11;17.33;;;5.75;;
52304;SDS011;38248;52.722;6.734;2022-09-09T00:17:09;11.07;;;6.78;;
52304;SDS011;38248;52.722;6.734;2022-09-09T00:19:50;10.23;;;6.93;;
52304;SDS011;38248;52.722;6.734;2022-09-09T00:22:43;14.65;;;8.02;;
52304;SDS011;38248;52.722;6.734;2022-09-09T00:25:23;8.63;;;5.68;;
52304;SDS011;38248;52.722;6.734;2022-09-09T00:27:54;21.35;;;7.97;;
52304;SDS011;38248;52.722;6.734;2022-09-09T00:30:25;17.17;;;7.00;;
52304;SDS011;38248;52.722;6.734;2022-09-09T00:32:58;18.33;;;6.80;;
52304;SDS011;38248;52.722;6.734;2022-09-09T00:36:09;10.88;;;6.45;;
52304;SDS011;38248;52.722;6.734;2022-09-09T00:38:48;17.73;;;7.03;;
52304;SDS011;38248;52.722;6.734;2022-09-09T00:44:18;12.50;;;6.63;;
52304;SDS011;38248;52.722;6.734;2022-09-09T00:49:36;14.02;;;7.72;;
52304;SDS011;38248;52.722;6.734;2022-09-09T00:52:25;9.50;;;7.28;;
52304;SDS011;38248;52.722;6.734;2022-09-09T00:55:21;12.82;;;7.30;;
52304;SDS011;38248;52.722;6.734;2022-09-09T00:58:06;13.25;;;7.10;;
52304;SDS011;38248;52.722;6.734;2022-09-09T01:00:47;11.82;;;7.88;;
52304;SDS011;38248;52.722;6.734;2022-09-09T01:08:42;16.00;;;7.20;;
52304;SDS011;38248;52.722;6.734;2022-09-09T01:17:00;11.07;;;7.32;;
52304;SDS011;38248;52.722;6.734;2022-09-09T01:22:11;11.73;;;7.97;;
52304;SDS011;38248;52.722;6.734;2022-09-09T01:27:37;14.63;;;8.95;;
52304;SDS011;38248;52.722;6.734;2022-09-09T01:30:07;16.55;;;9.23;;
52304;SDS011;38248;52.722;6.734;2022-09-09T01:32:37;13.18;;;8.95;;
52304;SDS011;38248;52.722;6.734;2022-09-09T01:35:05;12.75;;;8.98;;
52304;SDS011;38248;52.722;6.734;2022-09-09T01:37:36;15.40;;;9.30;;
52304;SDS011;38248;52.722;6.734;2022-09-09T01:40:02;11.90;;;8.18;;
52304;SDS011;38248;52.722;6.734;2022-09-09T01:42:27;13.25;;;8.75;;
52304;SDS011;38248;52.722;6.734;2022-09-09T01:44:53;12.90;;;8.85;;
52304;SDS011;38248;52.722;6.734;2022-09-09T01:47:20;12.63;;;8.80;;
52304;SDS011;38248;52.722;6.734;2022-09-09T01:49:46;13.68;;;8.73;;
52304;SDS011;38248;52.722;6.734;2022-09-09T01:52:11;11.57;;;7.95;;
52304;SDS011;38248;52.722;6.734;2022-09-09T01:54:37;11.15;;;8.07;;
52304;SDS011;38248;52.722;6.734;2022-09-09T01:57:08;9.77;;;8.38;;
52304;SDS011;38248;52.722;6.734;2022-09-09T02:02:32;14.05;;;8.73;;
52304;SDS011;38248;52.722;6.734;2022-09-09T02:05:16;11.52;;;9.10;;
52304;SDS011;38248;52.722;6.734;2022-09-09T02:07:55;11.77;;;9.00;;
52304;SDS011;38248;52.722;6.734;2022-09-09T02:10:29;10.40;;;7.53;;
52304;SDS011;38248;52.722;6.734;2022-09-09T02:13:05;13.73;;;8.75;;
52304;SDS011;38248;52.722;6.734;2022-09-09T02:18:36;8.57;;;7.68;;
52304;SDS011;38248;52.722;6.734;2022-09-09T02:21:07;10.90;;;8.20;;
52304;SDS011;38248;52.722;6.734;2022-09-09T02:23:37;12.65;;;8.85;;
52304;SDS011;38248;52.722;6.734;2022-09-09T02:26:04;9.48;;;8.48;;
52304;SDS011;38248;52.722;6.734;2022-09-09T02:28:32;10.48;;;8.07;;
52304;SDS011;38248;52.722;6.734;2022-09-09T02:31:01;11.20;;;9.05;;
52304;SDS011;38248;52.722;6.734;2022-09-09T02:33:28;12.40;;;8.75;;
52304;SDS011;38248;52.722;6.734;2022-09-09T02:35:59;10.85;;;8.43;;
52304;SDS011;38248;52.722;6.734;2022-09-09T02:38:29;9.93;;;8.85;;
52304;SDS011;38248;52.722;6.734;2022-09-09T02:40:58;10.93;;;8.88;;
52304;SDS011;38248;52.722;6.734;2022-09-09T02:43:24;11.27;;;8.05;;
52304;SDS011;38248;52.722;6.734;2022-09-09T02:48:44;5.28;;;4.25;;
52304;SDS011;38248;52.722;6.734;2022-09-09T02:51:24;3.75;;;3.13;;
52304;SDS011;38248;52.722;6.734;2022-09-09T02:54:12;6.10;;;2.83;;
52304;SDS011;38248;52.722;6.734;2022-09-09T02:56:55;4.07;;;2.90;;
52304;SDS011;38248;52.722;6.734;2022-09-09T02:59:26;5.30;;;2.30;;
52304;SDS011;38248;52.722;6.734;2022-09-09T03:01:52;2.88;;;2.03;;
52304;SDS011;38248;52.722;6.734;2022-09-09T03:04:18;3.33;;;2.30;;
52304;SDS011;38248;52.722;6.734;2022-09-09T03:06:44;2.95;;;1.80;;
52304;SDS011;38248;52.722;6.734;2022-09-09T03:09:09;4.28;;;1.88;;
52304;SDS011;38248;52.722;6.734;2022-09-09T03:11:35;3.00;;;1.70;;
52304;SDS011;38248;52.722;6.734;2022-09-09T03:14:01;2.20;;;1.67;;
52304;SDS011;38248;52.722;6.734;2022-09-09T03:16:30;4.35;;;2.08;;
52304;SDS011;38248;52.722;6.734;2022-09-09T03:18:58;4.68;;;2.05;;
52304;SDS011;38248;52.722;6.734;2022-09-09T03:21:24;4.57;;;1.60;;
52304;SDS011;38248;52.722;6.734;2022-09-09T03:23:50;4.55;;;2.03;;
52304;SDS011;38248;52.722;6.734;2022-09-09T03:26:15;5.15;;;2.45;;
52304;SDS011;38248;52.722;6.734;2022-09-09T03:28:41;4.25;;;2.50;;
52304;SDS011;38248;52.722;6.734;2022-09-09T03:31:07;4.93;;;3.03;;
52304;SDS011;38248;52.722;6.734;2022-09-09T03:33:35;5.82;;;2.90;;
52304;SDS011;38248;52.722;6.734;2022-09-09T03:36:02;4.85;;;3.35;;
52304;SDS011;38248;52.722;6.734;2022-09-09T03:38:29;5.00;;;4.35;;
52304;SDS011;38248;52.722;6.734;2022-09-09T03:40:55;8.63;;;6.10;;
52304;SDS011;38248;52.722;6.734;2022-09-09T03:43:22;7.97;;;7.07;;
52304;SDS011;38248;52.722;6.734;2022-09-09T03:45:51;9.70;;;7.93;;
52304;SDS011;38248;52.722;6.734;2022-09-09T03:48:17;13.80;;;8.55;;
52304;SDS011;38248;52.722;6.734;2022-09-09T03:50:47;11.50;;;9.30;;
52304;SDS011;38248;52.722;6.734;2022-09-09T03:53:14;12.25;;;8.98;;
52304;SDS011;38248;52.722;6.734;2022-09-09T03:55:44;14.85;;;10.38;;
52304;SDS011;38248;52.722;6.734;2022-09-09T03:58:15;12.35;;;10.57;;
52304;SDS011;38248;52.722;6.734;2022-09-09T04:00:43;12.20;;;10.98;;
52304;SDS011;38248;52.722;6.734;2022-09-09T04:03:21;16.52;;;11.32;;
52304;SDS011;38248;52.722;6.734;2022-09-09T04:05:49;15.75;;;11.80;;
52304;SDS011;38248;52.722;6.734;2022-09-09T04:08:16;13.57;;;11.25;;
52304;SDS011;38248;52.722;6.734;2022-09-09T04:10:44;12.32;;;10.13;;
52304;SDS011;38248;52.722;6.734;2022-09-09T04:13:11;14.90;;;10.32;;
52304;SDS011;38248;52.722;6.734;2022-09-09T04:15:41;13.38;;;9.88;;
52304;SDS011;38248;52.722;6.734;2022-09-09T04:18:07;11.82;;;8.77;;
52304;SDS011;38248;52.722;6.734;2022-09-09T04:20:33;11.40;;;10.00;;
52304;SDS011;38248;52.722;6.734;2022-09-09T04:22:59;13.80;;;9.68;;
52304;SDS011;38248;52.722;6.734;2022-09-09T04:25:24;12.65;;;9.90;;
52304;SDS011;38248;52.722;6.734;2022-09-09T04:27:54;11.00;;;9.60;;
52304;SDS011;38248;52.722;6.734;2022-09-09T04:30:20;11.25;;;9.75;;
52304;SDS011;38248;52.722;6.734;2022-09-09T04:32:50;11.90;;;8.43;;
52304;SDS011;38248;52.722;6.734;2022-09-09T04:35:15;12.50;;;9.73;;
52304;SDS011;38248;52.722;6.734;2022-09-09T04:37:41;10.88;;;8.90;;
52304;SDS011;38248;52.722;6.734;2022-09-09T04:40:07;10.23;;;8.80;;
52304;SDS011;38248;52.722;6.734;2022-09-09T04:42:38;12.77;;;8.73;;
52304;SDS011;38248;52.722;6.734;2022-09-09T04:45:04;10.20;;;8.90;;
52304;SDS011;38248;52.722;6.734;2022-09-09T04:47:32;11.15;;;9.20;;
52304;SDS011;38248;52.722;6.734;2022-09-09T04:49:59;12.30;;;9.85;;
52304;SDS011;38248;52.722;6.734;2022-09-09T04:52:25;10.70;;;8.80;;
52304;SDS011;38248;52.722;6.734;2022-09-09T04:54:51;10.38;;;8.93;;
52304;SDS011;38248;52.722;6.734;2022-09-09T04:57:32;10.75;;;8.63;;
52304;SDS011;38248;52.722;6.734;2022-09-09T04:59:58;14.90;;;9.25;;
52304;SDS011;38248;52.722;6.734;2022-09-09T05:02:25;10.90;;;9.60;;
52304;SDS011;38248;52.722;6.734;2022-09-09T05:04:51;10.25;;;8.95;;
52304;SDS011;38248;52.722;6.734;2022-09-09T05:07:17;11.38;;;9.70;;
52304;SDS011;38248;52.722;6.734;2022-09-09T05:09:42;9.30;;;8.32;;
52304;SDS011;38248;52.722;6.734;2022-09-09T05:12:08;11.38;;;9.20;;
52304;SDS011;38248;52.722;6.734;2022-09-09T05:14:33;10.73;;;9.25;;
52304;SDS011;38248;52.722;6.734;2022-09-09T05:17:02;9.23;;;7.97;;
52304;SDS011;38248;52.722;6.734;2022-09-09T05:19:27;9.68;;;8.15;;
52304;SDS011;38248;52.722;6.734;2022-09-09T05:21:53;9.70;;;8.07;;
52304;SDS011;38248;52.722;6.734;2022-09-09T05:24:18;11.13;;;8.18;;
52304;SDS011;38248;52.722;6.734;2022-09-09T05:26:44;10.57;;;7.85;;
52304;SDS011;38248;52.722;6.734;2022-09-09T05:29:09;10.20;;;8.98;;
52304;SDS011;38248;52.722;6.734;2022-09-09T05:31:35;10.05;;;8.95;;
52304;SDS011;38248;52.722;6.734;2022-09-09T05:34:01;9.55;;;8.60;;
52304;SDS011;38248;52.722;6.734;2022-09-09T05:36:27;12.80;;;9.15;;
52304;SDS011;38248;52.722;6.734;2022-09-09T05:38:53;11.02;;;8.50;;
52304;SDS011;38248;52.722;6.734;2022-09-09T05:41:19;9.48;;;8.48;;
52304;SDS011;38248;52.722;6.734;2022-09-09T05:43:45;9.65;;;7.95;;
52304;SDS011;38248;52.722;6.734;2022-09-09T05:46:22;9.80;;;8.55;;
52304;SDS011;38248;52.722;6.734;2022-09-09T05:48:53;9.82;;;8.20;;
52304;SDS011;38248;52.722;6.734;2022-09-09T05:51:23;8.52;;;7.50;;
52304;SDS011;38248;52.722;6.734;2022-09-09T05:53:51;12.18;;;8.07;;
52304;SDS011;38248;52.722;6.734;2022-09-09T05:56:18;9.05;;;6.63;;
52304;SDS011;38248;52.722;6.734;2022-09-09T05:58:46;9.50;;;7.13;;
52304;SDS011;38248;52.722;6.734;2022-09-09T06:01:17;7.00;;;6.28;;
52304;SDS011;38248;52.722;6.734;2022-09-09T06:03:45;8.10;;;6.60;;
52304;SDS011;38248;52.722;6.734;2022-09-09T06:06:12;11.35;;;7.10;;
52304;SDS011;38248;52.722;6.734;2022-09-09T06:08:43;10.65;;;6.88;;
52304;SDS011;38248;52.722;6.734;2022-09-09T06:11:14;7.63;;;6.82;;
52304;SDS011;38248;52.722;6.734;2022-09-09T06:13:42;8.57;;;7.07;;
52304;SDS011;38248;52.722;6.734;2022-09-09T06:16:11;7.78;;;6.50;;
52304;SDS011;38248;52.722;6.734;2022-09-09T06:18:39;7.93;;;6.60;;
52304;SDS011;38248;52.722;6.734;2022-09-09T06:21:06;7.85;;;6.43;;
52304;SDS011;38248;52.722;6.734;2022-09-09T06:23:36;8.02;;;6.20;;
52304;SDS011;38248;52.722;6.734;2022-09-09T06:26:06;9.57;;;6.50;;
52304;SDS011;38248;52.722;6.734;2022-09-09T06:28:36;8.18;;;6.15;;
52304;SDS011;38248;52.722;6.734;2022-09-09T06:31:03;9.07;;;5.88;;
52304;SDS011;38248;52.722;6.734;2022-09-09T06:33:31;9.65;;;6.00;;
52304;SDS011;38248;52.722;6.734;2022-09-09T06:36:00;10.05;;;6.05;;
52304;SDS011;38248;52.722;6.734;2022-09-09T06:38:26;10.48;;;6.35;;
52304;SDS011;38248;52.722;6.734;2022-09-09T06:40:56;8.43;;;6.15;;
52304;SDS011;38248;52.722;6.734;2022-09-09T06:43:27;6.75;;;5.68;;
52304;SDS011;38248;52.722;6.734;2022-09-09T06:45:57;9.00;;;5.75;;
52304;SDS011;38248;52.722;6.734;2022-09-09T06:48:23;7.53;;;5.50;;
52304;SDS011;38248;52.722;6.734;2022-09-09T06:50:53;8.07;;;5.97;;
52304;SDS011;38248;52.722;6.734;2022-09-09T06:53:27;6.45;;;5.85;;
52304;SDS011;38248;52.722;6.734;2022-09-09T06:55:53;6.32;;;5.05;;
52304;SDS011;38248;52.722;6.734;2022-09-09T06:58:19;11.35;;;5.68;;
52304;SDS011;38248;52.722;6.734;2022-09-09T07:00:47;9.23;;;5.85;;
52304;SDS011;38248;52.722;6.734;2022-09-09T07:03:13;8.45;;;6.10;;
52304;SDS011;38248;52.722;6.734;2022-09-09T07:05:39;7.82;;;5.63;;
52304;SDS011;38248;52.722;6.734;2022-09-09T07:08:04;8.52;;;5.93;;
52304;SDS011;38248;52.722;6.734;2022-09-09T07:10:30;6.72;;;5.90;;
52304;SDS011;38248;52.722;6.734;2022-09-09T07:12:57;9.45;;;6.18;;
52304;SDS011;38248;52.722;6.734;2022-09-09T07:15:22;7.10;;;5.53;;
52304;SDS011;38248;52.722;6.734;2022-09-09T07:17:48;8.50;;;5.68;;
52304;SDS011;38248;52.722;6.734;2022-09-09T07:20:30;9.27;;;5.30;;
52304;SDS011;38248;52.722;6.734;2022-09-09T07:22:56;9.40;;;5.90;;
52304;SDS011;38248;52.722;6.734;2022-09-09T07:25:25;11.18;;;5.20;;
52304;SDS011;38248;52.722;6.734;2022-09-09T07:27:53;8.15;;;5.53;;
52304;SDS011;38248;52.722;6.734;2022-09-09T07:30:22;9.23;;;5.45;;
52304;SDS011;38248;52.722;6.734;2022-09-09T07:32:52;5.97;;;5.38;;
52304;SDS011;38248;52.722;6.734;2022-09-09T07:35:23;7.43;;;5.20;;
52304;SDS011;38248;52.722;6.734;2022-09-09T07:37:49;10.23;;;5.43;;
52304;SDS011;38248;52.722;6.734;2022-09-09T07:40:15;6.35;;;5.32;;
52304;SDS011;38248;52.722;6.734;2022-09-09T07:42:40;9.23;;;6.43;;
52304;SDS011;38248;52.722;6.734;2022-09-09T07:45:06;8.68;;;5.70;;
52304;SDS011;38248;52.722;6.734;2022-09-09T07:47:32;8.05;;;5.47;;
52304;SDS011;38248;52.722;6.734;2022-09-09T07:49:58;6.15;;;5.10;;
52304;SDS011;38248;52.722;6.734;2022-09-09T07:52:27;6.72;;;5.65;;
52304;SDS011;38248;52.722;6.734;2022-09-09T07:54:53;12.27;;;5.85;;
52304;SDS011;38248;52.722;6.734;2022-09-09T07:57:25;10.88;;;5.50;;
52304;SDS011;38248;52.722;6.734;2022-09-09T07:59:51;6.32;;;5.25;;
52304;SDS011;38248;52.722;6.734;2022-09-09T08:02:19;7.20;;;5.72;;
52304;SDS011;38248;52.722;6.734;2022-09-09T08:04:45;11.38;;;5.78;;
52304;SDS011;38248;52.722;6.734;2022-09-09T08:07:11;7.47;;;5.40;;
52304;SDS011;38248;52.722;6.734;2022-09-09T08:09:37;7.03;;;4.65;;
52304;SDS011;38248;52.722;6.734;2022-09-09T08:12:07;5.32;;;4.57;;
52304;SDS011;38248;52.722;6.734;2022-09-09T08:14:34;12.68;;;5.68;;
52304;SDS011;38248;52.722;6.734;2022-09-09T08:16:59;6.70;;;4.45;;
52304;SDS011;38248;52.722;6.734;2022-09-09T08:19:26;8.23;;;5.05;;
52304;SDS011;38248;52.722;6.734;2022-09-09T08:21:58;7.38;;;4.38;;
52304;SDS011;38248;52.722;6.734;2022-09-09T08:24:27;7.25;;;3.78;;
52304;SDS011;38248;52.722;6.734;2022-09-09T08:26:56;10.30;;;5.50;;
52304;SDS011;38248;52.722;6.734;2022-09-09T08:29:44;6.80;;;3.72;;
52304;SDS011;38248;52.722;6.734;2022-09-09T08:32:09;7.60;;;5.07;;
52304;SDS011;38248;52.722;6.734;2022-09-09T08:34:35;10.50;;;4.28;;
52304;SDS011;38248;52.722;6.734;2022-09-09T08:37:01;6.70;;;3.78;;
52304;SDS011;38248;52.722;6.734;2022-09-09T08:39:27;7.75;;;4.43;;
52304;SDS011;38248;52.722;6.734;2022-09-09T08:41:59;8.55;;;3.80;;
52304;SDS011;38248;52.722;6.734;2022-09-09T08:50:35;7.60;;;3.05;;
52304;SDS011;38248;52.722;6.734;2022-09-09T08:53:19;8.68;;;4.05;;
52304;SDS011;38248;52.722;6.734;2022-09-09T08:56:09;6.88;;;3.40;;
52304;SDS011;38248;52.722;6.734;2022-09-09T08:59:02;6.10;;;3.13;;
52304;SDS011;38248;52.722;6.734;2022-09-09T09:04:10;10.05;;;4.18;;
52304;SDS011;38248;52.722;6.734;2022-09-09T09:06:55;7.93;;;3.05;;
52304;SDS011;38248;52.722;6.734;2022-09-09T09:09:57;8.73;;;2.95;;
52304;SDS011;38248;52.722;6.734;2022-09-09T09:12:35;9.43;;;2.85;;
52304;SDS011;38248;52.722;6.734;2022-09-09T09:15:25;6.13;;;2.97;;
52304;SDS011;38248;52.722;6.734;2022-09-09T09:17:55;9.27;;;3.17;;
52304;SDS011;38248;52.722;6.734;2022-09-09T09:20:23;7.68;;;2.67;;
52304;SDS011;38248;52.722;6.734;2022-09-09T09:22:55;8.27;;;2.78;;
52304;SDS011;38248;52.722;6.734;2022-09-09T09:25:35;5.75;;;2.42;;
52304;SDS011;38248;52.722;6.734;2022-09-09T09:36:18;7.00;;;2.20;;
52304;SDS011;38248;52.722;6.734;2022-09-09T09:38:59;9.43;;;2.00;;
52304;SDS011;38248;52.722;6.734;2022-09-09T09:41:36;7.43;;;2.30;;
52304;SDS011;38248;52.722;6.734;2022-09-09T09:44:05;6.57;;;1.52;;
52304;SDS011;38248;52.722;6.734;2022-09-09T09:46:45;7.28;;;1.58;;
52304;SDS011;38248;52.722;6.734;2022-09-09T09:49:11;8.27;;;1.98;;
52304;SDS011;38248;52.722;6.734;2022-09-09T09:51:38;6.78;;;2.30;;
52304;SDS011;38248;52.722;6.734;2022-09-09T09:56:46;4.93;;;1.27;;
52304;SDS011;38248;52.722;6.734;2022-09-09T09:59:23;7.28;;;1.40;;
52304;SDS011;38248;52.722;6.734;2022-09-09T10:01:49;6.35;;;1.92;;
52304;SDS011;38248;52.722;6.734;2022-09-09T10:04:16;5.85;;;1.67;;
52304;SDS011;38248;52.722;6.734;2022-09-09T10:06:47;6.07;;;1.88;;
52304;SDS011;38248;52.722;6.734;2022-09-09T10:12:00;7.10;;;1.38;;
52304;SDS011;38248;52.722;6.734;2022-09-09T10:14:39;6.18;;;2.20;;
52304;SDS011;38248;52.722;6.734;2022-09-09T10:20:49;6.32;;;0.85;;
52304;SDS011;38248;52.722;6.734;2022-09-09T10:23:40;7.65;;;1.65;;
52304;SDS011;38248;52.722;6.734;2022-09-09T10:34:37;5.88;;;1.00;;
52304;SDS011;38248;52.722;6.734;2022-09-09T10:37:52;6.20;;;1.30;;
52304;SDS011;38248;52.722;6.734;2022-09-09T10:40:31;4.40;;;1.00;;
52304;SDS011;38248;52.722;6.734;2022-09-09T10:51:02;2.72;;;0.90;;
52304;SDS011;38248;52.722;6.734;2022-09-09T10:53:44;6.65;;;1.52;;
52304;SDS011;38248;52.722;6.734;2022-09-09T10:56:24;6.05;;;1.00;;
52304;SDS011;38248;52.722;6.734;2022-09-09T10:59:07;6.82;;;1.02;;
52304;SDS011;38248;52.722;6.734;2022-09-09T11:04:33;4.18;;;1.25;;
52304;SDS011;38248;52.722;6.734;2022-09-09T11:07:09;5.40;;;1.38;;
52304;SDS011;38248;52.722;6.734;2022-09-09T11:12:41;11.30;;;1.33;;
52304;SDS011;38248;52.722;6.734;2022-09-09T11:18:20;5.47;;;1.70;;
52304;SDS011;38248;52.722;6.734;2022-09-09T11:20:58;4.38;;;1.00;;
52304;SDS011;38248;52.722;6.734;2022-09-09T11:23:43;4.18;;;1.17;;
52304;SDS011;38248;52.722;6.734;2022-09-09T11:26:16;7.25;;;1.15;;
52304;SDS011;38248;52.722;6.734;2022-09-09T11:28:56;5.70;;;1.25;;
52304;SDS011;38248;52.722;6.734;2022-09-09T11:31:50;4.70;;;0.80;;
52304;SDS011;38248;52.722;6.734;2022-09-09T11:34:40;3.63;;;0.70;;
52304;SDS011;38248;52.722;6.734;2022-09-09T11:37:31;6.57;;;1.17;;
52304;SDS011;38248;52.722;6.734;2022-09-09T11:40:21;5.65;;;1.00;;
52304;SDS011;38248;52.722;6.734;2022-09-09T11:42:48;2.83;;;1.05;;
52304;SDS011;38248;52.722;6.734;2022-09-09T11:45:26;7.85;;;0.70;;
52304;SDS011;38248;52.722;6.734;2022-09-09T11:48:03;7.07;;;0.95;;
52304;SDS011;38248;52.722;6.734;2022-09-09T11:55:59;3.92;;;1.20;;
52304;SDS011;38248;52.722;6.734;2022-09-09T11:58:39;2.55;;;0.68;;
52304;SDS011;38248;52.722;6.734;2022-09-09T12:01:41;3.03;;;0.73;;
52304;SDS011;38248;52.722;6.734;2022-09-09T12:07:04;2.33;;;0.63;;
52304;SDS011;38248;52.722;6.734;2022-09-09T12:14:39;6.22;;;1.15;;
52304;SDS011;38248;52.722;6.734;2022-09-09T12:17:31;3.22;;;0.90;;
52304;SDS011;38248;52.722;6.734;2022-09-09T12:20:14;5.50;;;1.25;;
52304;SDS011;38248;52.722;6.734;2022-09-09T12:22:51;5.50;;;1.30;;
52304;SDS011;38248;52.722;6.734;2022-09-09T12:25:49;6.13;;;1.10;;
52304;SDS011;38248;52.722;6.734;2022-09-09T12:28:54;6.25;;;1.08;;
52304;SDS011;38248;52.722;6.734;2022-09-09T12:32:06;4.78;;;0.90;;
52304;SDS011;38248;52.722;6.734;2022-09-09T12:34:40;5.55;;;1.02;;
52304;SDS011;38248;52.722;6.734;2022-09-09T12:39:55;3.83;;;0.90;;
52304;SDS011;38248;52.722;6.734;2022-09-09T12:42:28;6.53;;;1.00;;
52304;SDS011;38248;52.722;6.734;2022-09-09T12:44:58;4.85;;;1.25;;
52304;SDS011;38248;52.722;6.734;2022-09-09T12:47:34;4.07;;;0.80;;
52304;SDS011;38248;52.722;6.734;2022-09-09T12:50:26;5.40;;;1.65;;
52304;SDS011;38248;52.722;6.734;2022-09-09T12:52:58;5.07;;;0.88;;
52304;SDS011;38248;52.722;6.734;2022-09-09T12:55:51;5.10;;;1.00;;
52304;SDS011;38248;52.722;6.734;2022-09-09T12:58:19;5.40;;;1.20;;
52304;SDS011;38248;52.722;6.734;2022-09-09T13:00:52;7.00;;;1.33;;
52304;SDS011;38248;52.722;6.734;2022-09-09T13:03:41;3.25;;;0.90;;
52304;SDS011;38248;52.722;6.734;2022-09-09T13:06:17;9.25;;;1.88;;
52304;SDS011;38248;52.722;6.734;2022-09-09T13:08:47;4.88;;;1.17;;
52304;SDS011;38248;52.722;6.734;2022-09-09T13:11:19;7.38;;;1.08;;
52304;SDS011;38248;52.722;6.734;2022-09-09T13:13:55;2.33;;;0.98;;
52304;SDS011;38248;52.722;6.734;2022-09-09T13:16:28;4.47;;;1.30;;
52304;SDS011;38248;52.722;6.734;2022-09-09T13:19:14;4.00;;;1.00;;
52304;SDS011;38248;52.722;6.734;2022-09-09T13:21:41;5.10;;;0.60;;
52304;SDS011;38248;52.722;6.734;2022-09-09T13:24:29;4.80;;;1.20;;
52304;SDS011;38248;52.722;6.734;2022-09-09T13:27:02;3.70;;;0.98;;
52304;SDS011;38248;52.722;6.734;2022-09-09T13:29:52;3.97;;;0.77;;
52304;SDS011;38248;52.722;6.734;2022-09-09T13:32:19;2.55;;;0.50;;
52304;SDS011;38248;52.722;6.734;2022-09-09T13:34:55;3.00;;;0.50;;
52304;SDS011;38248;52.722;6.734;2022-09-09T13:37:31;3.08;;;0.60;;
52304;SDS011;38248;52.722;6.734;2022-09-09T13:40:02;5.70;;;1.15;;
52304;SDS011;38248;52.722;6.734;2022-09-09T13:42:31;4.97;;;1.17;;
52304;SDS011;38248;52.722;6.734;2022-09-09T13:45:02;3.05;;;0.80;;
52304;SDS011;38248;52.722;6.734;2022-09-09T13:47:33;2.20;;;0.65;;
52304;SDS011;38248;52.722;6.734;2022-09-09T13:52:51;4.85;;;0.90;;
52304;SDS011;38248;52.722;6.734;2022-09-09T13:55:42;3.78;;;0.65;;
52304;SDS011;38248;52.722;6.734;2022-09-09T13:58:14;5.30;;;1.20;;
52304;SDS011;38248;52.722;6.734;2022-09-09T14:00:41;5.93;;;1.55;;
52304;SDS011;38248;52.722;6.734;2022-09-09T14:03:15;4.15;;;1.00;;
52304;SDS011;38248;52.722;6.734;2022-09-09T14:05:47;4.95;;;1.05;;
52304;SDS011;38248;52.722;6.734;2022-09-09T14:08:23;4.22;;;1.17;;
52304;SDS011;38248;52.722;6.734;2022-09-09T14:10:50;5.20;;;1.00;;
52304;SDS011;38248;52.722;6.734;2022-09-09T14:13:17;5.63;;;0.90;;
52304;SDS011;38248;52.722;6.734;2022-09-09T14:15:42;3.63;;;1.08;;
52304;SDS011;38248;52.722;6.734;2022-09-09T14:18:11;3.35;;;1.15;;
52304;SDS011;38248;52.722;6.734;2022-09-09T14:20:39;2.80;;;1.02;;
52304;SDS011;38248;52.722;6.734;2022-09-09T14:23:05;3.47;;;1.00;;
52304;SDS011;38248;52.722;6.734;2022-09-09T14:25:34;5.90;;;0.98;;
52304;SDS011;38248;52.722;6.734;2022-09-09T14:28:00;3.00;;;0.90;;
52304;SDS011;38248;52.722;6.734;2022-09-09T14:30:28;2.20;;;1.20;;
52304;SDS011;38248;52.722;6.734;2022-09-09T14:32:54;3.28;;;1.10;;
52304;SDS011;38248;52.722;6.734;2022-09-09T14:35:20;4.43;;;1.02;;
52304;SDS011;38248;52.722;6.734;2022-09-09T14:37:46;1.95;;;1.05;;
52304;SDS011;38248;52.722;6.734;2022-09-09T14:40:12;1.83;;;0.80;;
52304;SDS011;38248;52.722;6.734;2022-09-09T14:45:10;1.95;;;0.70;;
52304;SDS011;38248;52.722;6.734;2022-09-09T14:47:36;4.50;;;0.90;;
52304;SDS011;38248;52.722;6.734;2022-09-09T14:50:03;3.92;;;0.88;;
52304;SDS011;38248;52.722;6.734;2022-09-09T14:52:30;3.67;;;1.30;;
52304;SDS011;38248;52.722;6.734;2022-09-09T14:54:55;3.30;;;1.00;;
52304;SDS011;38248;52.722;6.734;2022-09-09T14:57:22;2.20;;;1.00;;
52304;SDS011;38248;52.722;6.734;2022-09-09T14:59:47;2.30;;;1.05;;
52304;SDS011;38248;52.722;6.734;2022-09-09T15:02:15;2.35;;;0.95;;
52304;SDS011;38248;52.722;6.734;2022-09-09T15:04:41;2.90;;;0.82;;
52304;SDS011;38248;52.722;6.734;2022-09-09T15:07:07;3.15;;;0.93;;
52304;SDS011;38248;52.722;6.734;2022-09-09T15:09:32;3.15;;;0.95;;
52304;SDS011;38248;52.722;6.734;2022-09-09T15:11:58;2.95;;;1.08;;
52304;SDS011;38248;52.722;6.734;2022-09-09T15:14:24;5.05;;;1.25;;
52304;SDS011;38248;52.722;6.734;2022-09-09T15:19:21;4.07;;;1.70;;
52304;SDS011;38248;52.722;6.734;2022-09-09T15:21:47;3.63;;;1.30;;
52304;SDS011;38248;52.722;6.734;2022-09-09T15:24:12;3.75;;;1.48;;
52304;SDS011;38248;52.722;6.734;2022-09-09T15:26:38;4.22;;;1.50;;
52304;SDS011;38248;52.722;6.734;2022-09-09T15:29:04;4.50;;;1.63;;
52304;SDS011;38248;52.722;6.734;2022-09-09T15:31:31;2.85;;;1.23;;
52304;SDS011;38248;52.722;6.734;2022-09-09T15:33:57;4.65;;;1.52;;
52304;SDS011;38248;52.722;6.734;2022-09-09T15:36:28;4.50;;;1.42;;
52304;SDS011;38248;52.722;6.734;2022-09-09T15:38:57;3.15;;;1.50;;
52304;SDS011;38248;52.722;6.734;2022-09-09T15:41:23;5.15;;;1.85;;
52304;SDS011;38248;52.722;6.734;2022-09-09T15:43:54;4.70;;;1.80;;
52304;SDS011;38248;52.722;6.734;2022-09-09T15:48:50;4.30;;;1.27;;
52304;SDS011;38248;52.722;6.734;2022-09-09T15:51:17;3.03;;;1.38;;
52304;SDS011;38248;52.722;6.734;2022-09-09T15:53:46;4.38;;;1.27;;
52304;SDS011;38248;52.722;6.734;2022-09-09T15:56:12;4.28;;;1.35;;
52304;SDS011;38248;52.722;6.734;2022-09-09T15:58:40;4.47;;;1.75;;
52304;SDS011;38248;52.722;6.734;2022-09-09T16:01:08;4.38;;;1.60;;
52304;SDS011;38248;52.722;6.734;2022-09-09T16:03:40;2.92;;;1.75;;
52304;SDS011;38248;52.722;6.734;2022-09-09T16:06:16;5.15;;;2.40;;
52304;SDS011;38248;52.722;6.734;2022-09-09T16:08:47;2.70;;;1.88;;
52304;SDS011;38248;52.722;6.734;2022-09-09T16:11:16;3.47;;;1.70;;
52304;SDS011;38248;52.722;6.734;2022-09-09T16:13:47;5.55;;;1.80;;
52304;SDS011;38248;52.722;6.734;2022-09-09T16:16:17;3.85;;;1.92;;
52304;SDS011;38248;52.722;6.734;2022-09-09T16:18:47;3.35;;;1.90;;
52304;SDS011;38248;52.722;6.734;2022-09-09T16:21:18;4.90;;;2.65;;
52304;SDS011;38248;52.722;6.734;2022-09-09T16:23:46;4.57;;;2.63;;
52304;SDS011;38248;52.722;6.734;2022-09-09T16:26:17;2.40;;;2.05;;
52304;SDS011;38248;52.722;6.734;2022-09-09T16:28:51;5.22;;;1.95;;
52304;SDS011;38248;52.722;6.734;2022-09-09T16:31:19;4.07;;;2.10;;
52304;SDS011;38248;52.722;6.734;2022-09-09T16:33:50;3.10;;;1.60;;
52304;SDS011;38248;52.722;6.734;2022-09-09T16:36:16;3.35;;;1.30;;
52304;SDS011;38248;52.722;6.734;2022-09-09T16:38:44;4.68;;;1.85;;
52304;SDS011;38248;52.722;6.734;2022-09-09T16:41:11;5.00;;;2.00;;
52304;SDS011;38248;52.722;6.734;2022-09-09T16:43:38;5.13;;;1.50;;
52304;SDS011;38248;52.722;6.734;2022-09-09T16:46:14;3.92;;;1.70;;
52304;SDS011;38248;52.722;6.734;2022-09-09T16:48:45;3.78;;;1.40;;
52304;SDS011;38248;52.722;6.734;2022-09-09T16:51:15;2.95;;;0.93;;
52304;SDS011;38248;52.722;6.734;2022-09-09T16:56:18;4.45;;;0.85;;
52304;SDS011;38248;52.722;6.734;2022-09-09T16:58:50;3.22;;;0.85;;
52304;SDS011;38248;52.722;6.734;2022-09-09T17:01:34;3.53;;;0.80;;
52304;SDS011;38248;52.722;6.734;2022-09-09T17:04:04;2.50;;;1.25;;
52304;SDS011;38248;52.722;6.734;2022-09-09T17:06:35;1.70;;;0.75;;